Time;durP1;ratioP1;P1;durP2;ratioP2;P2;SDS_P1;SDS_P2;PMS_P1;PMS_P2;Temp;Humidity;BMP_temperature;BMP_pressure;BME280_temperature;BME280_humidity;BME280_pressure;Samples;Min_cycle;Max_cycle;Signal;HPM_P1;HPM_P2
2023/09/23 00:02:09;;;;;;;20.52;12.30;;;17.80;99.90;;;;;;5191299;28;20083;-76
2023/09/23 00:04:41;;;;;;;25.10;15.35;;;17.80;99.90;;;;;;5191104;28;20037;-76
2023/09/23 00:07:13;;;;;;;22.15;13.60;;;17.80;99.90;;;;;;5209112;28;20539;-76
2023/09/23 00:09:43;;;;;;;22.00;13.85;;;17.70;99.90;;;;;;5208775;28;20036;-76
2023/09/23 00:12:15;;;;;;;26.23;15.82;;;17.50;99.90;;;;;;5208989;28;20025;-76
2023/09/23 00:14:46;;;;;;;23.95;14.75;;;17.60;99.90;;;;;;5191088;28;20083;-76
2023/09/23 00:17:16;;;;;;;26.63;15.40;;;17.40;99.90;;;;;;5208395;28;20079;-76
2023/09/23 00:19:47;;;;;;;32.95;16.63;;;17.40;99.90;;;;;;5190919;28;20159;-76
2023/09/23 00:22:18;;;;;;;26.40;15.50;;;17.40;99.90;;;;;;5208708;28;20489;-76
2023/09/23 00:24:50;;;;;;;28.77;15.30;;;17.40;99.90;;;;;;5208797;28;20072;-76
2023/09/23 00:27:26;;;;;;;27.80;16.17;;;17.70;99.90;;;;;;5191042;28;20022;-76
2023/09/23 00:29:56;;;;;;;28.88;16.33;;;17.50;99.90;;;;;;5208523;28;20108;-76
2023/09/23 00:32:27;;;;;;;23.15;14.15;;;17.50;99.90;;;;;;5208814;28;20200;-76
2023/09/23 00:35:01;;;;;;;29.70;14.23;;;17.50;99.90;;;;;;5186479;28;20050;-76
2023/09/23 00:37:32;;;;;;;30.70;16.02;;;17.50;99.90;;;;;;5187917;28;20389;-76
2023/09/23 00:40:04;;;;;;;27.65;16.77;;;17.40;99.90;;;;;;5187606;28;20069;-76
2023/09/23 00:42:36;;;;;;;26.65;15.88;;;17.20;99.90;;;;;;5186099;28;20474;-76
2023/09/23 00:45:13;;;;;;;24.23;14.15;;;17.30;99.90;;;;;;5187727;28;20030;-76
2023/09/23 00:47:46;;;;;;;28.20;16.00;;;17.10;99.90;;;;;;5186563;28;20021;-76
2023/09/23 00:50:18;;;;;;;22.25;15.13;;;17.20;99.90;;;;;;5187690;28;20030;-76
2023/09/23 00:52:51;;;;;;;28.73;15.27;;;17.00;99.90;;;;;;5186423;28;20026;-76
2023/09/23 00:55:24;;;;;;;25.70;16.55;;;17.00;99.90;;;;;;5187755;28;20495;-75
2023/09/23 00:58:00;;;;;;;23.15;15.18;;;17.20;99.90;;;;;;5187428;28;20080;-76
2023/09/23 01:00:31;;;;;;;24.52;15.45;;;17.30;99.90;;;;;;5186324;28;20067;-76
2023/09/23 01:03:02;;;;;;;23.88;14.77;;;17.20;99.90;;;;;;5187464;28;20026;-76
2023/09/23 01:05:34;;;;;;;22.85;14.48;;;17.20;99.90;;;;;;5186090;28;20034;-76
2023/09/23 01:08:07;;;;;;;28.42;12.82;;;17.40;99.90;;;;;;5187414;28;20049;-76
2023/09/23 01:10:38;;;;;;;26.02;14.32;;;17.10;99.90;;;;;;5187319;28;20033;-76
2023/09/23 01:13:19;;;;;;;24.88;12.73;;;17.20;99.90;;;;;;5187639;28;20109;-75
2023/09/23 01:15:51;;;;;;;24.63;13.30;;;17.20;99.90;;;;;;5186040;28;20505;-76
2023/09/23 01:18:28;;;;;;;25.23;13.35;;;17.20;99.90;;;;;;5187369;28;20057;-76
2023/09/23 01:21:00;;;;;;;25.52;12.98;;;17.00;99.90;;;;;;5187564;28;20033;-76
2023/09/23 01:23:36;;;;;;;28.17;14.23;;;17.00;99.90;;;;;;5187217;28;20026;-76
2023/09/23 01:26:11;;;;;;;23.42;13.65;;;17.00;99.90;;;;;;5185777;28;20029;-76
2023/09/23 01:28:43;;;;;;;25.48;14.75;;;17.00;99.90;;;;;;5187063;28;20072;-76
2023/09/23 01:31:14;;;;;;;22.00;13.63;;;16.70;99.90;;;;;;5186940;28;20034;-76
2023/09/23 01:33:45;;;;;;;21.17;12.93;;;16.90;99.90;;;;;;5185101;28;20044;-76
2023/09/23 01:36:16;;;;;;;22.83;13.05;;;17.00;99.90;;;;;;5186907;28;20470;-76
2023/09/23 01:38:48;;;;;;;23.77;14.10;;;16.80;99.90;;;;;;5185475;28;20485;-76
2023/09/23 01:41:19;;;;;;;24.38;13.00;;;16.90;99.90;;;;;;5185550;28;20018;-76
2023/09/23 01:43:50;;;;;;;21.80;13.40;;;16.90;99.90;;;;;;5185630;28;20040;-76
2023/09/23 01:46:21;;;;;;;22.00;13.00;;;16.90;99.90;;;;;;5185645;28;20491;-76
2023/09/23 01:48:52;;;;;;;19.65;12.88;;;16.70;99.90;;;;;;5186849;28;20121;-76
2023/09/23 01:51:22;;;;;;;23.85;12.70;;;16.70;99.90;;;;;;5186667;28;20030;-76
2023/09/23 01:53:54;;;;;;;19.00;12.63;;;16.60;99.90;;;;;;5186701;28;20034;-76
2023/09/23 01:56:24;;;;;;;21.50;13.05;;;16.60;99.90;;;;;;5185421;28;20022;-76
2023/09/23 01:58:55;;;;;;;19.13;11.27;;;16.90;99.90;;;;;;5186610;28;20060;-75
2023/09/23 02:01:26;;;;;;;18.75;11.50;;;16.70;99.90;;;;;;5186604;28;20093;-76
2023/09/23 02:03:58;;;;;;;22.77;11.13;;;16.70;99.90;;;;;;5689904;22;20580;-76
2023/09/23 02:06:28;;;;;;;17.25;11.40;;;16.80;99.90;;;;;;5227484;28;20040;-76
2023/09/23 02:08:59;;;;;;;17.42;10.93;;;16.80;99.90;;;;;;5209638;28;20021;-76
2023/09/23 02:11:30;;;;;;;18.42;10.85;;;16.60;99.90;;;;;;5227471;28;20025;-76
2023/09/23 02:14:01;;;;;;;19.75;12.38;;;16.70;99.90;;;;;;5209603;28;20027;-76
2023/09/23 02:16:33;;;;;;;19.83;11.02;;;16.80;99.90;;;;;;5209200;28;20025;-76
2023/09/23 02:19:04;;;;;;;17.40;10.43;;;16.70;99.90;;;;;;5227368;28;20033;-76
2023/09/23 02:21:34;;;;;;;17.23;11.48;;;16.60;99.90;;;;;;5227462;28;20091;-76
2023/09/23 02:24:06;;;;;;;18.67;11.80;;;16.70;99.90;;;;;;5227406;28;20021;-76
2023/09/23 02:26:37;;;;;;;18.92;10.60;;;16.80;99.90;;;;;;5227472;28;20056;-76
2023/09/23 02:29:07;;;;;;;16.67;10.23;;;16.50;99.90;;;;;;5209096;28;20060;-76
2023/09/23 02:31:38;;;;;;;17.83;10.13;;;16.40;99.90;;;;;;5209402;28;20082;-76
2023/09/23 02:34:10;;;;;;;15.63;9.95;;;16.60;99.90;;;;;;5209092;28;20041;-76
2023/09/23 02:36:41;;;;;;;19.08;11.55;;;16.60;99.90;;;;;;5209421;28;20533;-76
2023/09/23 02:39:16;;;;;;;15.57;10.73;;;16.50;99.90;;;;;;5227097;28;20029;-76
2023/09/23 02:41:48;;;;;;;16.58;10.82;;;16.50;99.90;;;;;;5209243;28;20040;-76
2023/09/23 02:44:20;;;;;;;18.50;10.30;;;16.10;99.90;;;;;;5227377;28;20021;-76
2023/09/23 02:46:55;;;;;;;18.75;10.23;;;16.20;99.90;;;;;;5227195;28;20025;-75
2023/09/23 02:49:25;;;;;;;21.02;11.48;;;16.30;99.90;;;;;;5227129;28;20104;-75
2023/09/23 02:51:56;;;;;;;18.83;10.48;;;16.40;99.90;;;;;;5209208;28;20116;-76
2023/09/23 02:54:27;;;;;;;18.58;10.50;;;16.20;99.90;;;;;;5227006;28;20030;-76
2023/09/23 02:57:03;;;;;;;15.10;10.98;;;16.30;99.90;;;;;;5227042;28;20396;-76
2023/09/23 02:59:41;;;;;;;18.35;10.70;;;16.30;99.90;;;;;;5226885;28;20060;-76
2023/09/23 03:02:20;;;;;;;20.02;11.82;;;16.20;99.90;;;;;;5227261;28;20023;-76
2023/09/23 03:04:58;;;;;;;18.10;10.32;;;16.50;99.90;;;;;;5226612;28;20045;-76
2023/09/23 03:07:32;;;;;;;16.40;10.32;;;16.40;99.90;;;;;;5229871;28;20017;-76
2023/09/23 03:10:09;;;;;;;19.67;11.50;;;16.30;99.90;;;;;;5230666;28;20021;-76
2023/09/23 03:12:51;;;;;;;22.13;11.18;;;16.40;99.90;;;;;;5230569;28;20032;-76
2023/09/23 03:15:33;;;;;;;17.20;9.88;;;16.40;99.90;;;;;;5231035;28;20028;-76
2023/09/23 03:18:05;;;;;;;18.88;10.45;;;16.10;99.90;;;;;;5212670;28;20036;-76
2023/09/23 03:20:40;;;;;;;19.02;10.38;;;16.20;99.90;;;;;;5230755;28;20172;-75
2023/09/23 03:23:10;;;;;;;17.85;10.68;;;17.30;99.90;;;;;;5230393;28;20025;-76
2023/09/23 03:25:46;;;;;;;21.83;11.50;;;16.20;99.90;;;;;;5212341;28;20024;-75
2023/09/23 03:28:17;;;;;;;20.88;10.88;;;17.10;99.90;;;;;;5230329;28;20071;-75
2023/09/23 03:30:49;;;;;;;18.17;10.55;;;16.30;99.90;;;;;;5212351;28;20017;-76
2023/09/23 03:33:21;;;;;;;25.42;12.18;;;16.30;99.90;;;;;;5212151;28;20132;-76
2023/09/23 03:35:51;;;;;;;25.95;12.18;;;16.10;99.90;;;;;;5230055;28;20029;-76
2023/09/23 03:38:22;;;;;;;20.33;11.38;;;16.30;99.90;;;;;;5229969;28;20039;-76
2023/09/23 03:40:55;;;;;;;21.73;11.30;;;16.00;99.90;;;;;;5229950;28;20021;-76
2023/09/23 03:43:27;;;;;;;20.58;11.40;;;16.20;99.90;;;;;;5230086;28;20055;-76
2023/09/23 03:45:57;;;;;;;23.15;11.77;;;16.30;99.90;;;;;;5212019;28;20036;-76
2023/09/23 03:48:28;;;;;;;21.48;11.73;;;16.20;99.90;;;;;;5229744;28;20037;-76
2023/09/23 03:50:59;;;;;;;21.65;11.88;;;15.90;99.90;;;;;;5229737;28;20021;-76
2023/09/23 03:53:30;;;;;;;21.15;10.77;;;16.00;99.90;;;;;;5229457;28;20029;-76
2023/09/23 03:56:01;;;;;;;25.35;12.23;;;16.10;99.90;;;;;;5229687;28;20061;-76
2023/09/23 03:58:32;;;;;;;19.00;11.25;;;16.00;99.90;;;;;;5211793;28;20040;-75
2023/09/23 04:01:13;;;;;;;18.48;10.43;;;16.00;99.90;;;;;;5211798;28;20052;-76
2023/09/23 04:03:44;;;;;;;24.08;11.38;;;16.00;99.90;;;;;;5211452;28;20049;-76
2023/09/23 04:06:14;;;;;;;20.63;10.32;;;16.10;99.90;;;;;;5229728;28;20021;-76
2023/09/23 04:08:47;;;;;;;20.33;11.43;;;16.10;99.90;;;;;;5229467;28;20037;-76
2023/09/23 04:11:18;;;;;;;21.90;10.82;;;16.30;99.90;;;;;;5229506;28;20020;-76
2023/09/23 04:13:50;;;;;;;16.00;10.23;;;16.10;99.90;;;;;;5229304;28;20033;-77
2023/09/23 04:16:22;;;;;;;15.23;9.75;;;16.20;99.90;;;;;;5229377;28;20105;-76
2023/09/23 04:18:53;;;;;;;21.90;11.35;;;16.30;99.90;;;;;;5228232;28;20032;-76
2023/09/23 04:21:25;;;;;;;20.00;12.10;;;16.30;99.90;;;;;;5211725;28;20075;-76
2023/09/23 04:23:57;;;;;;;19.75;11.48;;;16.30;99.90;;;;;;5229085;28;20036;-76
2023/09/23 04:26:27;;;;;;;20.83;12.52;;;16.10;99.90;;;;;;5211306;28;20052;-75
2023/09/23 04:28:58;;;;;;;21.95;10.82;;;16.30;99.90;;;;;;5211132;28;20441;-76
2023/09/23 04:31:30;;;;;;;19.05;11.25;;;16.40;99.90;;;;;;5229059;28;20093;-76
2023/09/23 04:34:01;;;;;;;19.65;12.02;;;16.30;99.90;;;;;;5228863;28;20430;-76
2023/09/23 04:36:32;;;;;;;19.85;11.55;;;16.00;99.90;;;;;;5229065;28;20013;-76
2023/09/23 04:39:06;;;;;;;22.05;12.40;;;16.20;99.90;;;;;;5210584;28;20033;-76
2023/09/23 04:41:40;;;;;;;22.15;11.52;;;16.30;99.90;;;;;;5228816;28;20082;-76
2023/09/23 04:44:12;;;;;;;18.85;11.98;;;16.40;99.90;;;;;;5210979;28;20135;-76
2023/09/23 04:46:45;;;;;;;23.10;11.73;;;16.50;99.90;;;;;;5228931;28;20108;-76
2023/09/23 04:49:16;;;;;;;19.52;12.27;;;16.40;99.90;;;;;;5211073;28;20495;-76
2023/09/23 04:51:47;;;;;;;19.10;12.48;;;16.30;99.90;;;;;;5210826;28;20031;-76
2023/09/23 04:54:17;;;;;;;26.95;12.80;;;16.30;99.90;;;;;;5228351;28;20025;-76
2023/09/23 04:56:48;;;;;;;25.42;12.63;;;16.70;99.90;;;;;;5210850;28;20032;-76
2023/09/23 04:59:19;;;;;;;27.13;13.48;;;16.70;99.90;;;;;;5228448;28;20473;-76
2023/09/23 05:01:50;;;;;;;36.63;13.25;;;17.00;99.90;;;;;;5228601;28;20017;-76
2023/09/23 05:04:21;;;;;;;24.98;11.93;;;16.90;99.90;;;;;;5228085;28;20447;-75
2023/09/23 05:06:52;;;;;;;25.80;12.18;;;17.10;99.90;;;;;;5228141;28;20559;-75
2023/09/23 05:09:26;;;;;;;22.50;13.10;;;17.00;99.90;;;;;;5210452;28;20029;-76
2023/09/23 05:11:57;;;;;;;35.50;13.32;;;17.40;99.90;;;;;;5210419;28;20035;-76
2023/09/23 05:14:28;;;;;;;31.35;12.23;;;17.60;99.90;;;;;;5228232;28;20068;-76
2023/09/23 05:16:59;;;;;;;57.38;13.13;;;17.60;99.90;;;;;;5227937;28;20484;-76
2023/09/23 05:19:31;;;;;;;28.83;11.82;;;17.80;99.90;;;;;;5227953;28;20033;-76
2023/09/23 05:22:03;;;;;;;49.67;12.95;;;18.20;99.90;;;;;;5228162;28;20021;-76
2023/09/23 05:24:34;;;;;;;30.70;13.10;;;18.20;99.90;;;;;;5210156;28;20036;-76
2023/09/23 05:27:05;;;;;;;31.50;12.48;;;18.30;99.90;;;;;;5210128;28;20025;-76
2023/09/23 05:29:36;;;;;;;17.55;11.60;;;18.60;99.90;;;;;;5227897;28;20538;-76
2023/09/23 05:32:10;;;;;;;25.95;11.13;;;18.60;99.90;;;;;;5209989;28;20036;-76
2023/09/23 05:34:42;;;;;;;23.50;11.20;;;18.70;99.90;;;;;;5210003;28;20037;-76
2023/09/23 05:37:13;;;;;;;49.70;13.88;;;18.90;99.90;;;;;;5209976;28;20530;-76
2023/09/23 05:39:45;;;;;;;41.97;14.05;;;18.90;99.90;;;;;;5228152;28;20033;-76
2023/09/23 05:42:23;;;;;;;37.40;12.20;;;19.10;99.90;;;;;;5210018;28;20431;-76
2023/09/23 05:44:53;;;;;;;30.02;11.45;;;19.40;99.90;;;;;;5227854;28;20115;-76
2023/09/23 05:47:24;;;;;;;26.02;11.80;;;19.50;99.90;;;;;;5227891;28;20108;-76
2023/09/23 05:49:55;;;;;;;22.50;11.23;;;19.40;99.90;;;;;;5209802;28;20020;-76
2023/09/23 05:52:27;;;;;;;20.48;10.70;;;19.40;99.90;;;;;;5209796;28;20028;-76
2023/09/23 05:54:58;;;;;;;15.57;11.30;;;19.60;99.90;;;;;;5227442;28;20522;-76
2023/09/23 05:57:29;;;;;;;20.77;11.35;;;20.00;99.90;;;;;;5209751;28;20049;-77
2023/09/23 06:00:00;;;;;;;20.70;11.68;;;20.10;99.90;;;;;;5227955;28;20048;-76
2023/09/23 06:02:32;;;;;;;13.93;10.73;;;20.20;99.90;;;;;;5227542;28;20013;-76
2023/09/23 06:05:03;;;;;;;13.40;10.38;;;20.30;99.90;;;;;;5227227;28;20052;-76
2023/09/23 06:07:34;;;;;;;16.38;10.40;;;20.40;99.90;;;;;;5209668;28;20107;-76
2023/09/23 06:10:06;;;;;;;17.35;10.90;;;20.40;99.90;;;;;;5227360;28;20139;-76
2023/09/23 06:12:37;;;;;;;17.02;12.27;;;20.60;99.90;;;;;;5227284;28;20017;-76
2023/09/23 06:15:08;;;;;;;16.63;12.35;;;20.70;99.90;;;;;;5209532;28;20029;-76
2023/09/23 06:17:39;;;;;;;26.17;13.10;;;21.00;99.90;;;;;;5227219;28;20497;-76
2023/09/23 06:20:11;;;;;;;21.13;14.43;;;20.90;99.90;;;;;;5227348;28;20070;-76
2023/09/23 06:22:42;;;;;;;19.33;15.52;;;21.10;99.90;;;;;;5209491;28;20013;-76
2023/09/23 06:25:12;;;;;;;20.60;16.90;;;21.10;99.90;;;;;;5227343;28;20033;-76
2023/09/23 06:27:43;;;;;;;18.33;16.33;;;21.40;99.90;;;;;;5227189;28;20095;-76
2023/09/23 06:30:15;;;;;;;20.75;18.50;;;21.40;99.90;;;;;;5227315;28;20078;-76
2023/09/23 06:32:47;;;;;;;21.30;19.45;;;21.60;99.90;;;;;;5227245;28;20079;-76
2023/09/23 06:35:19;;;;;;;25.10;19.92;;;21.60;99.90;;;;;;5227171;28;20447;-76
2023/09/23 06:37:50;;;;;;;21.25;16.73;;;21.70;99.90;;;;;;5227287;28;20021;-76
2023/09/23 06:40:21;;;;;;;24.90;17.23;;;22.00;99.90;;;;;;5227004;28;20086;-76
2023/09/23 06:42:52;;;;;;;23.08;13.95;;;22.00;99.90;;;;;;5230880;28;20021;-76
2023/09/23 06:45:23;;;;;;;18.42;12.95;;;22.10;99.90;;;;;;5213582;28;20178;-76
2023/09/23 06:47:54;;;;;;;26.33;12.98;;;22.40;99.90;;;;;;5231072;28;20021;-76
2023/09/23 06:50:25;;;;;;;23.02;13.88;;;22.50;99.90;;;;;;5231128;28;20070;-77
2023/09/23 06:52:57;;;;;;;26.77;13.10;;;22.70;99.90;;;;;;5213513;28;20425;-76
2023/09/23 06:55:28;;;;;;;24.17;13.45;;;22.70;99.90;;;;;;5231194;28;20019;-76
2023/09/23 06:57:58;;;;;;;30.52;13.45;;;22.90;99.90;;;;;;5230703;28;20473;-76
2023/09/23 07:00:29;;;;;;;24.77;13.30;;;23.10;99.90;;;;;;5230982;28;20025;-76
2023/09/23 07:03:02;;;;;;;27.58;13.70;;;23.20;99.90;;;;;;5230515;28;20120;-76
2023/09/23 07:05:34;;;;;;;18.48;11.38;;;23.30;99.90;;;;;;5230403;28;20063;-76
2023/09/23 07:08:05;;;;;;;20.65;11.32;;;23.50;99.90;;;;;;5230787;28;20039;-76
2023/09/23 07:10:38;;;;;;;19.75;11.85;;;23.60;99.90;;;;;;5230541;28;20017;-77
2023/09/23 07:13:09;;;;;;;17.65;9.93;;;23.80;99.90;;;;;;5230764;28;20078;-77
2023/09/23 07:15:41;;;;;;;19.92;9.93;;;23.90;99.90;;;;;;5212587;28;20119;-77
2023/09/23 07:18:14;;;;;;;17.27;9.68;;;24.00;99.90;;;;;;5230461;28;20357;-76
2023/09/23 07:20:44;;;;;;;20.90;10.05;;;24.10;99.90;;;;;;5230131;28;20112;-77
2023/09/23 07:23:15;;;;;;;46.78;11.02;;;24.40;99.90;;;;;;5230283;28;20163;-77
2023/09/23 07:25:46;;;;;;;36.05;10.95;;;24.60;99.90;;;;;;5230466;28;20460;-76
2023/09/23 07:28:17;;;;;;;14.48;9.35;;;24.70;99.90;;;;;;5211882;28;20025;-77
2023/09/23 07:30:48;;;;;;;17.65;10.10;;;24.80;99.90;;;;;;5212296;28;20412;-77
2023/09/23 07:33:19;;;;;;;13.90;9.68;;;25.00;99.90;;;;;;5229924;28;20036;-77
2023/09/23 07:35:49;;;;;;;12.82;8.75;;;25.10;99.90;;;;;;5230042;28;20060;-77
2023/09/23 07:38:20;;;;;;;13.98;8.35;;;25.20;99.90;;;;;;5211748;28;20044;-77
2023/09/23 07:40:51;;;;;;;11.15;8.13;;;25.30;99.90;;;;;;5212104;28;20036;-77
2023/09/23 07:43:22;;;;;;;13.90;8.07;;;25.60;99.90;;;;;;5230062;28;20067;-77
2023/09/23 07:45:54;;;;;;;12.32;10.95;;;25.80;99.90;;;;;;5230018;28;20057;-76
2023/09/23 07:48:25;;;;;;;12.60;11.20;;;26.00;99.90;;;;;;5211986;28;20082;-77
2023/09/23 07:50:56;;;;;;;15.60;10.68;;;26.20;99.90;;;;;;5211942;28;20028;-77
2023/09/23 07:53:27;;;;;;;17.75;10.82;;;26.30;99.90;;;;;;5211549;28;20055;-77
2023/09/23 07:55:58;;;;;;;18.02;9.95;;;26.50;99.90;;;;;;5229947;28;20021;-77
2023/09/23 07:58:29;;;;;;;15.52;11.27;;;26.60;99.90;;;;;;5211862;28;20473;-77
2023/09/23 08:01:00;;;;;;;16.27;11.15;;;26.80;99.90;;;;;;5229703;28;20460;-77
2023/09/23 08:03:31;;;;;;;13.75;8.65;;;26.90;99.90;;;;;;5211002;28;20135;-77
2023/09/23 08:06:02;;;;;;;14.55;9.60;;;27.20;99.90;;;;;;5229540;28;20037;-77
2023/09/23 08:08:32;;;;;;;12.88;8.40;;;27.10;99.90;;;;;;5211901;28;20025;-77
2023/09/23 08:11:04;;;;;;;15.45;11.77;;;27.50;99.90;;;;;;5211292;28;20029;-77
2023/09/23 08:13:34;;;;;;;14.25;12.98;;;27.50;99.90;;;;;;5211505;28;20028;-77
2023/09/23 08:16:05;;;;;;;15.38;13.88;;;27.70;99.90;;;;;;5211023;28;20504;-77
2023/09/23 08:18:36;;;;;;;14.38;12.98;;;27.80;99.90;;;;;;5228485;28;20036;-77
2023/09/23 08:21:07;;;;;;;12.10;9.27;;;28.00;99.90;;;;;;5211552;28;20056;-77
2023/09/23 08:23:38;;;;;;;10.98;6.60;;;28.10;99.90;;;;;;5228858;28;20060;-77
2023/09/23 08:26:10;;;;;;;12.60;6.88;;;28.20;99.90;;;;;;5228803;28;20488;-77
2023/09/23 08:28:42;;;;;;;12.95;5.93;;;28.40;99.90;;;;;;5228956;28;20071;-77
2023/09/23 08:31:14;;;;;;;12.77;6.78;;;28.40;99.90;;;;;;5228762;28;20115;-77
2023/09/23 08:33:45;;;;;;;12.05;7.40;;;28.60;99.90;;;;;;5228505;28;20074;-77
2023/09/23 08:36:16;;;;;;;15.32;7.57;;;28.80;99.90;;;;;;5228886;28;20028;-76
2023/09/23 08:38:47;;;;;;;16.90;10.52;;;28.90;99.90;;;;;;5228306;28;20037;-77
2023/09/23 08:41:22;;;;;;;12.18;7.95;;;29.00;99.90;;;;;;5228631;28;20032;-77
2023/09/23 08:43:54;;;;;;;10.43;7.53;;;29.20;99.90;;;;;;5228480;28;20104;-77
2023/09/23 08:46:26;;;;;;;13.38;6.32;;;29.10;99.90;;;;;;5228516;28;20033;-76
2023/09/23 08:49:01;;;;;;;11.20;5.75;;;29.30;99.90;;;;;;5210661;28;20443;-76
2023/09/23 08:51:33;;;;;;;11.07;5.90;;;29.40;99.90;;;;;;5228244;28;20032;-77
2023/09/23 08:54:04;;;;;;;14.10;5.28;;;29.50;99.90;;;;;;5228242;28;20029;-77
2023/09/23 08:56:35;;;;;;;10.07;5.00;;;29.60;99.90;;;;;;5228197;28;20083;-77
2023/09/23 08:59:06;;;;;;;16.30;5.50;;;29.70;99.90;;;;;;5210149;28;20044;-77
2023/09/23 09:01:44;;;;;;;11.25;4.70;;;29.80;99.90;;;;;;5209640;28;20055;-77
2023/09/23 09:04:15;;;;;;;13.05;5.40;;;29.80;99.90;;;;;;5209113;28;20456;-78
2023/09/23 09:06:50;;;;;;;11.23;5.32;;;30.00;99.90;;;;;;5209970;28;20035;-77
2023/09/23 09:09:23;;;;;;;14.23;5.85;;;30.20;99.90;;;;;;5227716;28;20055;-78
2023/09/23 09:11:54;;;;;;;12.00;4.47;;;30.20;99.90;;;;;;5227922;28;20021;-77
2023/09/23 09:14:25;;;;;;;8.55;4.88;;;30.30;99.90;;;;;;5227509;28;20025;-77
2023/09/23 09:16:56;;;;;;;12.23;5.22;;;30.40;99.90;;;;;;5227624;28;20472;-77
2023/09/23 09:19:27;;;;;;;8.00;4.30;;;30.60;99.90;;;;;;5227670;28;20045;-78
2023/09/23 09:21:58;;;;;;;12.15;4.75;;;30.60;99.90;;;;;;5209782;28;20477;-77
2023/09/23 09:24:30;;;;;;;9.32;5.57;;;30.80;99.90;;;;;;5227643;28;20025;-77
2023/09/23 09:27:01;;;;;;;10.02;5.32;;;30.80;99.90;;;;;;5227521;28;20025;-78
2023/09/23 09:29:31;;;;;;;14.48;5.15;;;31.00;99.90;;;;;;5227465;28;20024;-78
2023/09/23 09:32:03;;;;;;;12.43;5.00;;;31.10;99.90;;;;;;5694177;22;20144;-77
2023/09/23 09:34:40;;;;;;;10.55;5.43;;;31.00;99.90;;;;;;5209364;28;20025;-77
2023/09/23 09:37:15;;;;;;;9.10;4.55;;;31.10;99.90;;;;;;5209394;28;20036;-77
2023/09/23 09:39:56;;;;;;;11.25;5.40;;;31.30;99.90;;;;;;5209367;28;20086;-77
2023/09/23 09:42:30;;;;;;;14.80;4.70;;;31.30;99.90;;;;;;5227564;28;20028;-78
2023/09/23 09:45:03;;;;;;;8.57;4.90;;;31.40;99.90;;;;;;5227459;28;20074;-77
2023/09/23 09:47:34;;;;;;;12.68;4.95;;;31.60;99.90;;;;;;5227217;28;20025;-78
2023/09/23 09:50:06;;;;;;;9.00;4.53;;;31.70;99.90;;;;;;5227013;28;20086;-77
2023/09/23 09:52:43;;;;;;;13.13;4.78;;;31.60;99.90;;;;;;5208832;28;20024;-77
2023/09/23 09:55:17;;;;;;;10.40;4.55;;;31.70;99.90;;;;;;5226973;28;20361;-77
2023/09/23 09:57:48;;;;;;;12.20;4.75;;;31.60;99.90;;;;;;5208679;28;20071;-77
2023/09/23 10:00:33;;;;;;;12.48;4.82;;;31.80;99.90;;;;;;5226255;28;20045;-77
2023/09/23 10:03:05;;;;;;;11.60;4.78;;;31.80;99.90;;;;;;5226661;28;20029;-77
2023/09/23 10:05:46;;;;;;;9.77;4.60;;;32.00;99.90;;;;;;5226993;28;20020;-77
2023/09/23 10:08:24;;;;;;;18.27;5.25;;;32.10;99.90;;;;;;5209193;28;20550;-78
2023/09/23 10:11:04;;;;;;;11.20;4.70;;;32.20;99.90;;;;;;5209031;28;20033;-77
2023/09/23 10:13:35;;;;;;;13.73;4.85;;;32.20;99.90;;;;;;5226920;28;20542;-77
2023/09/23 10:16:17;;;;;;;14.52;5.25;;;32.30;99.90;;;;;;5227391;28;20034;-77
2023/09/23 10:18:56;;;;;;;11.70;4.78;;;32.20;99.90;;;;;;5230999;28;20035;-77
2023/09/23 10:41:36;;;;;;;12.15;5.80;;;32.90;98.30;;;;;;5287492;27;20982;-84
2023/09/23 10:44:08;;;;;;;17.77;6.85;;;33.20;89.90;;;;;;5287491;28;20016;-78
2023/09/23 10:46:38;;;;;;;15.23;5.95;;;33.10;88.80;;;;;;5287548;28;20024;-82
2023/09/23 10:49:11;;;;;;;12.60;5.93;;;33.20;85.90;;;;;;5287378;28;20523;-78
2023/09/23 10:51:42;;;;;;;9.88;6.22;;;33.30;93.30;;;;;;5287305;28;20103;-78
2023/09/23 10:54:13;;;;;;;13.68;5.80;;;33.50;91.40;;;;;;5284751;28;20016;-78
2023/09/23 10:56:44;;;;;;;14.13;5.43;;;33.50;88.20;;;;;;5281528;28;20035;-81
2023/09/23 10:59:16;;;;;;;9.70;5.95;;;33.50;90.10;;;;;;5287531;28;20055;-81
2023/09/23 11:01:46;;;;;;;11.10;5.13;;;33.70;85.40;;;;;;5270373;28;20028;-78
2023/09/23 11:04:19;;;;;;;13.65;6.05;;;33.30;85.30;;;;;;5266097;28;20418;-80
2023/09/23 11:06:51;;;;;;;14.93;5.63;;;33.40;85.60;;;;;;5266243;28;20024;-82
2023/09/23 11:09:22;;;;;;;16.23;5.25;;;33.70;86.40;;;;;;5265764;28;20032;-81
2023/09/23 11:11:54;;;;;;;11.60;6.00;;;33.70;84.80;;;;;;5265775;28;20071;-81
2023/09/23 11:14:27;;;;;;;14.27;5.20;;;33.60;82.40;;;;;;5265941;28;20070;-79
2023/09/23 11:16:58;;;;;;;12.82;4.90;;;33.80;82.70;;;;;;5266292;28;20366;-85
2023/09/23 11:19:29;;;;;;;12.88;5.50;;;33.90;83.80;;;;;;5265870;28;20112;-81
2023/09/23 11:22:03;;;;;;;14.50;5.45;;;34.10;84.00;;;;;;5264424;28;20156;-84
2023/09/23 11:24:39;;;;;;;16.73;5.43;;;34.00;82.30;;;;;;5264295;28;20020;-78
2023/09/23 11:27:13;;;;;;;10.30;6.70;;;34.00;81.60;;;;;;5263947;28;20028;-78
2023/09/23 11:29:44;;;;;;;12.73;6.75;;;33.70;80.40;;;;;;5265517;28;20036;-84
2023/09/23 11:32:21;;;;;;;12.60;6.47;;;33.80;79.70;;;;;;5263917;28;20020;-80
2023/09/23 11:34:53;;;;;;;15.27;8.32;;;34.20;88.80;;;;;;5265302;28;20059;-82
2023/09/23 11:37:24;;;;;;;23.23;8.52;;;34.20;92.90;;;;;;5265126;28;20027;-83
2023/09/23 11:39:56;;;;;;;20.55;8.25;;;34.20;92.90;;;;;;5264894;28;20048;-78
2023/09/23 11:42:27;;;;;;;23.52;8.90;;;34.20;94.00;;;;;;5251504;28;20074;-78
2023/09/23 11:44:59;;;;;;;22.38;8.50;;;34.30;93.40;;;;;;5250583;28;20483;-83
2023/09/23 11:47:31;;;;;;;17.25;7.53;;;34.10;93.40;;;;;;5251065;28;20060;-78
2023/09/23 11:50:05;;;;;;;20.98;8.18;;;34.20;91.70;;;;;;5250904;28;20032;-79
2023/09/23 11:52:36;;;;;;;15.48;7.53;;;34.20;93.10;;;;;;5250838;28;20048;-78
2023/09/23 11:55:09;;;;;;;23.73;7.72;;;34.00;91.20;;;;;;5251091;28;20514;-84
2023/09/23 11:57:41;;;;;;;21.65;7.30;;;34.20;93.50;;;;;;5251393;28;20020;-80
2023/09/23 12:00:13;;;;;;;17.20;7.57;;;34.30;92.10;;;;;;5251007;28;20059;-79
2023/09/23 12:02:44;;;;;;;18.63;7.50;;;34.20;93.50;;;;;;5250933;28;20103;-78
2023/09/23 12:05:20;;;;;;;17.20;7.60;;;34.10;91.20;;;;;;5250976;28;20031;-81
2023/09/23 12:07:51;;;;;;;17.40;8.05;;;34.30;92.50;;;;;;5251198;28;20038;-81
2023/09/23 12:10:22;;;;;;;17.42;8.40;;;34.10;91.60;;;;;;5250710;28;20041;-83
2023/09/23 12:12:53;;;;;;;26.30;8.13;;;34.10;92.20;;;;;;5250895;28;20029;-79
2023/09/23 12:15:24;;;;;;;23.38;8.05;;;34.10;91.80;;;;;;5250815;28;20150;-78
2023/09/23 12:17:55;;;;;;;22.45;6.95;;;34.10;90.70;;;;;;5250637;28;20024;-83
2023/09/23 12:20:26;;;;;;;20.33;7.85;;;34.10;90.60;;;;;;5249421;28;20575;-84
2023/09/23 12:22:58;;;;;;;17.92;7.50;;;33.90;89.40;;;;;;5250780;28;20060;-83
2023/09/23 12:25:30;;;;;;;22.23;7.88;;;33.90;89.80;;;;;;5250539;28;20379;-78
2023/09/23 12:28:04;;;;;;;15.25;7.03;;;34.00;91.00;;;;;;5250511;28;20017;-82
2023/09/23 12:30:35;;;;;;;16.83;7.93;;;33.90;90.40;;;;;;5250373;28;20434;-83
2023/09/23 12:33:05;;;;;;;17.48;8.02;;;33.80;90.00;;;;;;5250451;28;20025;-80
2023/09/23 12:35:36;;;;;;;19.42;7.47;;;33.70;90.00;;;;;;5250315;28;20055;-78
2023/09/23 12:38:07;;;;;;;22.38;7.63;;;33.90;89.30;;;;;;5250305;28;20052;-84
2023/09/23 12:40:38;;;;;;;13.82;7.28;;;33.80;90.10;;;;;;5250001;28;20411;-82
2023/09/23 12:43:10;;;;;;;15.57;6.38;;;33.70;89.60;;;;;;5250133;28;20400;-83
2023/09/23 12:45:43;;;;;;;13.35;6.88;;;33.70;89.10;;;;;;5248888;28;20013;-82
2023/09/23 12:48:14;;;;;;;14.88;7.22;;;33.50;89.40;;;;;;5249932;28;20021;-79
2023/09/23 12:50:45;;;;;;;14.60;7.63;;;33.50;88.60;;;;;;5248624;28;20036;-84
2023/09/23 12:53:16;;;;;;;19.33;7.13;;;33.50;90.00;;;;;;5247770;28;20536;-84
2023/09/23 12:55:47;;;;;;;16.88;7.50;;;33.40;90.30;;;;;;5250521;28;20028;-84
2023/09/23 12:58:20;;;;;;;14.07;7.43;;;33.40;89.80;;;;;;5250434;28;20031;-84
2023/09/23 13:00:51;;;;;;;13.77;6.97;;;33.40;92.00;;;;;;5249527;28;20383;-83
2023/09/23 13:03:22;;;;;;;9.85;6.88;;;33.20;90.40;;;;;;5249760;28;20484;-80
2023/09/23 13:05:53;;;;;;;16.95;7.00;;;33.20;92.40;;;;;;5249684;28;20021;-79
2023/09/23 13:08:24;;;;;;;12.68;6.28;;;33.20;93.40;;;;;;5249882;28;20025;-80
2023/09/23 13:10:54;;;;;;;11.93;6.78;;;33.10;93.10;;;;;;5248121;28;20037;-82
2023/09/23 13:13:26;;;;;;;15.15;6.90;;;33.10;92.70;;;;;;5249589;28;20024;-82
2023/09/23 13:15:57;;;;;;;15.73;6.88;;;33.00;93.50;;;;;;5249470;28;20024;-80